createdAt,value
2022-10-22T00:00:08.470Z,54.07
2022-10-22T00:01:08.477Z,51.56
2022-10-22T00:02:08.450Z,51.24
2022-10-22T00:03:08.499Z,54.64
2022-10-22T00:04:08.435Z,54.77
2022-10-22T00:05:08.434Z,48.57
2022-10-22T00:06:08.438Z,51.75
2022-10-22T00:07:08.422Z,52.36
2022-10-22T00:08:08.413Z,54.92
2022-10-22T00:09:08.457Z,52.07
2022-10-22T00:10:08.397Z,49.26
2022-10-22T00:11:08.374Z,51.96
2022-10-22T00:12:08.373Z,53.03
2022-10-22T00:13:08.401Z,50.76
2022-10-22T00:14:08.347Z,51.44
2022-10-22T00:15:08.357Z,50.59
2022-10-22T00:16:08.341Z,50.83
2022-10-22T00:17:11.631Z,49.39
2022-10-22T00:18:08.325Z,52.69
2022-10-22T00:19:08.347Z,50.39
2022-10-22T00:20:08.318Z,49.64
2022-10-22T00:21:08.307Z,47.97
2022-10-22T00:22:08.297Z,49.15
2022-10-22T00:23:08.311Z,53.63
2022-10-22T00:24:08.307Z,53.71
2022-10-22T00:25:08.284Z,51.31
2022-10-22T00:26:08.273Z,55.28
2022-10-22T00:27:08.289Z,54.24
2022-10-22T00:28:08.253Z,50.73
2022-10-22T00:29:08.253Z,54.50
2022-10-22T00:30:08.245Z,51.84
2022-10-22T00:31:09.267Z,54.96
2022-10-22T00:32:08.226Z,52.92
2022-10-22T00:33:08.222Z,52.18
2022-10-22T00:34:08.214Z,52.45
2022-10-22T00:35:08.210Z,49.79
2022-10-22T00:36:08.226Z,53.14
2022-10-22T00:37:08.189Z,53.29
2022-10-22T00:38:08.196Z,51.76
2022-10-22T00:39:08.181Z,51.60
2022-10-22T00:40:08.185Z,50.75
2022-10-22T00:41:08.161Z,52.61
2022-10-22T00:42:08.137Z,50.94
2022-10-22T00:43:08.146Z,50.19
2022-10-22T00:44:08.141Z,51.61
2022-10-22T00:45:08.137Z,53.73
2022-10-22T00:46:08.134Z,50.67
2022-10-22T00:47:08.121Z,52.94
2022-10-22T00:48:08.097Z,50.38
2022-10-22T00:49:08.109Z,52.13
2022-10-22T00:50:08.102Z,52.63
2022-10-22T00:51:08.110Z,49.54
2022-10-22T00:52:08.081Z,50.54
2022-10-22T00:53:08.074Z,49.49
2022-10-22T00:54:08.081Z,49.79
2022-10-22T00:55:08.099Z,53.10
2022-10-22T00:56:08.069Z,52.21
2022-10-22T00:57:08.082Z,52.20
2022-10-22T00:58:08.018Z,51.45
2022-10-22T01:00:08.061Z,51.22
2022-10-22T01:01:08.036Z,54.87
2022-10-22T01:02:07.994Z,53.31
2022-10-22T01:03:08.008Z,50.43
2022-10-22T01:04:07.977Z,51.89
2022-10-22T01:05:07.990Z,51.96
2022-10-22T01:06:07.982Z,52.74
2022-10-22T01:07:07.962Z,49.58
2022-10-22T01:08:08.010Z,50.71
2022-10-22T01:09:08.006Z,52.07
2022-10-22T01:10:07.932Z,53.04
2022-10-22T01:11:07.929Z,57.18
2022-10-22T01:12:08.920Z,54.92
2022-10-22T01:13:07.909Z,51.58
2022-10-22T01:14:07.897Z,54.01
2022-10-22T01:15:07.981Z,52.56
2022-10-22T01:16:07.913Z,53.04
2022-10-22T01:17:07.922Z,53.36
2022-10-22T01:18:07.866Z,50.33
2022-10-22T01:19:07.896Z,49.56
2022-10-22T01:20:07.895Z,53.67
2022-10-22T01:21:07.910Z,53.32
2022-10-22T01:22:07.890Z,47.77
2022-10-22T01:23:07.856Z,51.00
2022-10-22T01:24:07.849Z,50.75
2022-10-22T01:25:07.872Z,51.53
2022-10-22T01:26:07.893Z,52.40
2022-10-22T01:27:08.853Z,52.61
2022-10-22T01:28:07.824Z,50.78
2022-10-22T01:29:07.794Z,50.61
2022-10-22T01:30:07.781Z,57.26
2022-10-22T01:31:07.793Z,56.04
2022-10-22T01:32:07.771Z,53.12
2022-10-22T01:33:07.759Z,51.88
2022-10-22T01:34:07.748Z,53.65
2022-10-22T01:35:07.753Z,51.17
2022-10-22T01:36:07.906Z,54.51
2022-10-22T01:37:07.946Z,55.17
2022-10-22T01:38:07.770Z,47.62
2022-10-22T01:39:07.709Z,50.88
2022-10-22T01:40:07.713Z,52.34
2022-10-22T01:41:07.691Z,52.80
2022-10-22T01:42:07.707Z,52.39
2022-10-22T01:43:08.027Z,51.47
2022-10-22T01:44:07.850Z,52.09
2022-10-22T01:45:07.837Z,53.72
2022-10-22T01:46:07.686Z,53.28
2022-10-22T01:47:07.819Z,53.32
2022-10-22T01:48:07.709Z,50.29
2022-10-22T01:49:07.681Z,48.46
2022-10-22T01:50:07.626Z,53.33
2022-10-22T01:51:07.628Z,53.41
2022-10-22T01:52:07.769Z,54.86
2022-10-22T01:53:07.834Z,51.59
2022-10-22T01:54:07.639Z,54.64
2022-10-22T01:55:07.670Z,54.33
2022-10-22T01:56:07.766Z,52.10
2022-10-22T01:57:07.777Z,54.52
2022-10-22T01:58:07.661Z,56.87
2022-10-22T01:59:07.696Z,52.57
2022-10-22T02:00:07.682Z,53.72
2022-10-22T02:01:07.721Z,51.81
2022-10-22T02:02:07.725Z,53.49
2022-10-22T02:03:07.811Z,52.75
2022-10-22T02:04:07.621Z,53.74
2022-10-22T02:05:07.555Z,49.07
2022-10-22T02:06:07.601Z,53.45
2022-10-22T02:07:07.632Z,47.83
2022-10-22T02:08:07.835Z,53.15
2022-10-22T02:09:07.781Z,54.39
2022-10-22T02:10:07.576Z,50.49
2022-10-22T02:11:07.557Z,53.06
2022-10-22T02:12:07.476Z,55.36
2022-10-22T02:13:07.594Z,51.70
2022-10-22T02:14:07.644Z,50.28
2022-10-22T02:15:07.553Z,49.19
2022-10-22T02:16:07.533Z,53.21
2022-10-22T02:17:07.534Z,53.88
2022-10-22T02:18:07.529Z,50.91
2022-10-22T02:19:07.426Z,52.39
2022-10-22T02:20:07.441Z,50.42
2022-10-22T02:22:07.502Z,53.09
2022-10-22T02:23:07.443Z,51.06
2022-10-22T02:24:07.457Z,51.29
2022-10-22T02:25:08.493Z,56.41
2022-10-22T02:26:07.389Z,52.34
2022-10-22T02:27:07.438Z,51.98
2022-10-22T02:28:07.439Z,51.86
2022-10-22T02:29:07.365Z,51.23
2022-10-22T02:30:07.558Z,53.36
2022-10-22T02:31:07.498Z,50.12
2022-10-22T02:32:07.425Z,51.18
2022-10-22T02:33:07.348Z,56.53
2022-10-22T02:34:07.389Z,54.84
2022-10-22T02:35:07.525Z,53.52
2022-10-22T02:36:07.519Z,53.47
2022-10-22T02:37:07.396Z,52.15
2022-10-22T02:38:07.381Z,51.35
2022-10-22T02:39:07.674Z,53.42
2022-10-22T02:40:07.401Z,51.95
2022-10-22T02:41:07.325Z,50.74
2022-10-22T02:42:07.389Z,51.95
2022-10-22T02:43:07.427Z,49.09
2022-10-22T02:44:07.273Z,51.71
2022-10-22T02:45:07.276Z,52.18
2022-10-22T02:46:07.237Z,53.44
2022-10-22T02:47:07.341Z,55.09
2022-10-22T02:48:07.376Z,54.38
2022-10-22T02:49:07.233Z,52.33
2022-10-22T02:50:09.603Z,52.47
2022-10-22T02:51:07.256Z,53.77
2022-10-22T02:52:07.207Z,55.46
2022-10-22T02:53:07.210Z,53.07
2022-10-22T02:54:07.212Z,55.44
2022-10-22T02:55:07.193Z,55.03
2022-10-22T02:56:07.192Z,58.25
2022-10-22T02:57:07.222Z,56.11
2022-10-22T02:58:07.210Z,54.88
2022-10-22T02:59:07.168Z,53.86
2022-10-22T03:00:07.191Z,55.31
2022-10-22T03:01:07.181Z,53.73
2022-10-22T03:02:07.183Z,53.71
2022-10-22T03:03:07.168Z,52.40
2022-10-22T03:04:07.115Z,54.43
2022-10-22T03:05:07.402Z,52.61
2022-10-22T03:06:07.143Z,53.20
2022-10-22T03:07:07.133Z,56.12
2022-10-22T03:08:07.273Z,55.30
2022-10-22T03:09:07.177Z,56.10
2022-10-22T03:10:07.087Z,55.17
2022-10-22T03:11:07.069Z,54.84
2022-10-22T03:12:07.131Z,55.26
2022-10-22T03:13:07.098Z,56.87
2022-10-22T03:14:07.187Z,56.64
2022-10-22T03:15:07.110Z,56.10
2022-10-22T03:16:07.050Z,54.75
2022-10-22T03:17:07.046Z,55.58
2022-10-22T03:18:07.093Z,56.03
2022-10-22T03:19:07.018Z,56.37
2022-10-22T03:20:07.034Z,57.39
2022-10-22T03:21:07.009Z,57.08
2022-10-22T03:22:07.034Z,56.93
2022-10-22T03:23:07.338Z,58.51
2022-10-22T03:24:07.143Z,54.49
2022-10-22T03:25:07.079Z,53.14
2022-10-22T03:26:06.958Z,55.62
2022-10-22T03:27:07.038Z,55.57
2022-10-22T03:28:06.965Z,55.48
2022-10-22T03:29:06.961Z,55.96
2022-10-22T03:30:06.987Z,57.38
2022-10-22T03:31:07.152Z,55.85
2022-10-22T03:32:07.094Z,58.82
2022-10-22T03:33:06.930Z,58.15
2022-10-22T03:34:07.098Z,57.04
2022-10-22T03:35:07.934Z,59.39
2022-10-22T03:36:06.978Z,55.87
2022-10-22T03:37:07.076Z,58.46
2022-10-22T03:38:06.894Z,57.87
2022-10-22T03:39:06.879Z,57.08
2022-10-22T03:40:06.913Z,58.82
2022-10-22T03:41:06.965Z,57.03
2022-10-22T03:42:06.943Z,58.17
2022-10-22T03:43:06.859Z,57.01
2022-10-22T03:44:06.814Z,58.12
2022-10-22T03:45:06.865Z,57.28
2022-10-22T03:46:06.820Z,54.53
2022-10-22T03:47:06.842Z,58.69
2022-10-22T03:48:06.874Z,56.13
2022-10-22T03:49:06.910Z,54.09
2022-10-22T03:50:07.072Z,57.77
2022-10-22T03:51:06.795Z,55.16
2022-10-22T03:52:06.815Z,58.12
2022-10-22T03:53:06.801Z,56.26
2022-10-22T03:54:06.798Z,54.98
2022-10-22T03:55:06.809Z,53.33
2022-10-22T03:56:06.841Z,55.98
2022-10-22T03:57:06.782Z,55.34
2022-10-22T03:58:06.852Z,55.87
2022-10-22T03:59:06.817Z,54.99
2022-10-22T04:00:06.753Z,57.04
2022-10-22T04:01:06.734Z,55.09
2022-10-22T04:02:06.849Z,53.35
2022-10-22T04:03:06.697Z,54.20
2022-10-22T04:04:06.906Z,55.99
2022-10-22T04:05:06.675Z,56.10
2022-10-22T04:06:06.658Z,57.32
2022-10-22T04:07:06.629Z,55.93
2022-10-22T04:08:06.650Z,55.49
2022-10-22T04:09:06.862Z,54.27
2022-10-22T04:10:06.730Z,55.84
2022-10-22T04:11:06.693Z,57.77
2022-10-22T04:12:06.747Z,57.14
2022-10-22T04:13:06.702Z,57.48
2022-10-22T04:14:06.605Z,57.89
2022-10-22T04:15:06.701Z,57.59
2022-10-22T04:16:06.662Z,56.13
2022-10-22T04:17:06.833Z,52.99
2022-10-22T04:18:06.690Z,58.22
2022-10-22T04:19:06.628Z,55.97
2022-10-22T04:20:06.653Z,55.21
2022-10-22T04:21:06.667Z,58.96
2022-10-22T04:22:06.684Z,58.93
2022-10-22T04:23:06.576Z,57.36
2022-10-22T04:24:06.613Z,54.75
2022-10-22T04:25:06.562Z,57.41
2022-10-22T04:26:06.541Z,55.67
2022-10-22T04:27:06.605Z,55.34
2022-10-22T04:28:06.605Z,53.31
2022-10-22T04:29:07.433Z,55.65
2022-10-22T04:30:06.549Z,53.73
2022-10-22T04:31:06.684Z,53.44
2022-10-22T04:32:06.681Z,54.58
2022-10-22T04:33:06.553Z,57.65
2022-10-22T04:34:06.478Z,56.15
2022-10-22T04:35:06.517Z,58.17
2022-10-22T04:36:06.461Z,60.26
2022-10-22T04:37:06.485Z,55.79
2022-10-22T04:38:06.617Z,58.42
2022-10-22T04:39:06.472Z,58.14
2022-10-22T04:40:06.542Z,57.15
2022-10-22T04:41:06.490Z,57.87
2022-10-22T04:42:06.488Z,57.17
2022-10-22T04:43:06.396Z,58.27
2022-10-22T04:44:06.486Z,55.33
2022-10-22T04:45:06.617Z,56.82
2022-10-22T04:46:07.491Z,56.81
2022-10-22T04:47:07.433Z,56.47
2022-10-22T04:48:06.433Z,56.87
2022-10-22T04:49:06.333Z,56.18
2022-10-22T04:50:06.321Z,56.00
2022-10-22T04:51:06.405Z,57.09
2022-10-22T04:52:06.464Z,55.22
2022-10-22T04:53:06.430Z,55.58
2022-10-22T04:54:07.398Z,55.33
2022-10-22T04:55:06.367Z,54.73
2022-10-22T04:56:06.445Z,56.88
2022-10-22T04:57:06.378Z,54.60
2022-10-22T04:58:06.348Z,56.37
2022-10-22T04:59:06.314Z,56.73
2022-10-22T05:00:06.286Z,54.88
2022-10-22T05:01:06.339Z,56.44
2022-10-22T05:02:06.245Z,57.24
2022-10-22T05:03:06.289Z,56.91
2022-10-22T05:04:06.329Z,55.90
2022-10-22T05:05:06.260Z,56.36
2022-10-22T05:06:06.442Z,54.75
2022-10-22T05:07:06.273Z,56.28
2022-10-22T05:08:06.266Z,57.77
2022-10-22T05:09:06.207Z,56.47
2022-10-22T05:10:06.181Z,58.33
2022-10-22T05:11:06.216Z,58.91
2022-10-22T05:12:06.229Z,57.51
2022-10-22T05:13:06.258Z,56.77
2022-10-22T05:14:06.224Z,56.74
2022-10-22T05:15:06.181Z,55.05
2022-10-22T05:16:06.311Z,58.01
2022-10-22T05:17:06.177Z,57.84
2022-10-22T05:18:06.163Z,57.35
2022-10-22T05:19:06.113Z,56.56
2022-10-22T05:20:06.128Z,58.04
2022-10-22T05:21:06.209Z,57.59
2022-10-22T05:22:06.184Z,57.31
2022-10-22T05:23:06.120Z,54.54
2022-10-22T05:24:06.104Z,57.20
2022-10-22T05:25:06.070Z,57.96
2022-10-22T05:26:06.317Z,56.49
2022-10-22T05:27:06.094Z,57.81
2022-10-22T05:28:06.161Z,56.93
2022-10-22T05:29:06.080Z,58.77
2022-10-22T05:30:06.142Z,58.87
2022-10-22T05:31:06.222Z,56.61
2022-10-22T05:32:06.092Z,57.22
2022-10-22T05:33:06.024Z,56.70
2022-10-22T05:34:06.072Z,56.69
2022-10-22T05:35:06.075Z,56.82
2022-10-22T05:36:06.029Z,58.44
2022-10-22T05:37:07.073Z,58.52
2022-10-22T05:38:07.041Z,58.90
2022-10-22T05:39:06.080Z,58.58
2022-10-22T05:40:19.412Z,57.71
2022-10-22T05:41:08.036Z,56.18
2022-10-22T05:42:06.117Z,57.90
2022-10-22T05:43:05.993Z,56.36
2022-10-22T05:44:05.997Z,58.11
2022-10-22T05:45:06.037Z,58.67
2022-10-22T05:46:06.002Z,57.81
2022-10-22T05:47:06.007Z,58.86
2022-10-22T05:48:06.036Z,57.41
2022-10-22T05:49:05.972Z,55.73
2022-10-22T05:50:06.172Z,59.80
2022-10-22T05:51:06.028Z,59.08
2022-10-22T05:52:05.938Z,56.91
2022-10-22T05:53:05.963Z,58.07
2022-10-22T05:54:05.978Z,56.88
2022-10-22T05:55:06.020Z,57.23
2022-10-22T05:56:05.872Z,59.06
2022-10-22T05:57:05.961Z,58.65
2022-10-22T05:58:05.961Z,57.42
2022-10-22T05:59:05.948Z,57.14
2022-10-22T06:00:05.873Z,53.94
2022-10-22T06:01:05.849Z,56.19
2022-10-22T06:02:05.939Z,58.66
2022-10-22T06:03:05.886Z,56.49
2022-10-22T06:04:05.878Z,55.64
2022-10-22T06:05:05.842Z,55.34
2022-10-22T06:06:05.791Z,57.34
2022-10-22T06:07:05.885Z,57.85
2022-10-22T06:08:05.762Z,59.30
2022-10-22T06:09:06.122Z,57.70
2022-10-22T06:10:05.885Z,57.68
2022-10-22T06:11:05.801Z,57.64
2022-10-22T06:12:05.780Z,58.24
2022-10-22T06:13:05.857Z,59.10
2022-10-22T06:14:05.998Z,59.47
2022-10-22T06:15:05.907Z,57.71
2022-10-22T06:16:05.750Z,59.42
2022-10-22T06:17:05.875Z,58.46
2022-10-22T06:18:05.722Z,58.52
2022-10-22T06:19:05.834Z,58.82
2022-10-22T06:21:06.729Z,57.72
2022-10-22T06:22:05.741Z,58.14
2022-10-22T06:23:05.741Z,58.49
2022-10-22T06:24:05.813Z,57.85
2022-10-22T06:25:05.684Z,56.77
2022-10-22T06:26:05.708Z,57.97
2022-10-22T06:27:05.664Z,56.58
2022-10-22T06:28:05.749Z,58.45
2022-10-22T06:29:05.758Z,57.88
2022-10-22T06:30:05.689Z,59.57
2022-10-22T06:31:05.772Z,57.43
2022-10-22T06:32:05.658Z,56.62
2022-10-22T06:33:05.578Z,59.05
2022-10-22T06:34:05.605Z,56.76
2022-10-22T06:35:05.821Z,60.99
2022-10-22T06:36:07.636Z,56.81
2022-10-22T06:37:05.737Z,56.96
2022-10-22T06:38:05.535Z,58.09
2022-10-22T06:39:05.566Z,57.36
2022-10-22T06:40:05.552Z,57.73
2022-10-22T06:41:05.516Z,59.72
2022-10-22T06:42:05.569Z,59.83
2022-10-22T06:43:05.516Z,59.71
2022-10-22T06:44:05.593Z,59.05
2022-10-22T06:45:05.483Z,58.95
2022-10-22T06:46:05.508Z,58.75
2022-10-22T06:47:05.557Z,57.74
2022-10-22T06:48:05.504Z,58.92
2022-10-22T06:49:05.521Z,59.03
2022-10-22T06:50:05.558Z,60.20
2022-10-22T06:51:05.430Z,58.94
2022-10-22T06:52:05.432Z,59.22
2022-10-22T06:53:05.440Z,60.14
2022-10-22T06:54:05.413Z,58.87
2022-10-22T06:55:05.404Z,59.19
2022-10-22T06:56:05.384Z,58.57
2022-10-22T06:57:05.475Z,58.74
2022-10-22T06:58:05.404Z,56.73
2022-10-22T06:59:05.777Z,58.61
2022-10-22T07:00:05.368Z,57.79
2022-10-22T07:01:05.411Z,57.56
2022-10-22T07:02:05.353Z,58.94
2022-10-22T07:03:05.360Z,58.46
2022-10-22T07:04:05.361Z,58.61
2022-10-22T07:05:05.341Z,57.94
2022-10-22T07:06:05.316Z,57.65
2022-10-22T07:07:05.309Z,60.76
2022-10-22T07:08:06.308Z,56.20
2022-10-22T07:09:06.146Z,59.67
2022-10-22T07:10:05.299Z,58.60
2022-10-22T07:11:05.293Z,58.79
2022-10-22T07:12:05.294Z,59.57
2022-10-22T07:13:05.271Z,60.40
2022-10-22T07:14:05.279Z,59.27
2022-10-22T07:15:05.255Z,59.30
2022-10-22T07:16:05.250Z,61.86
2022-10-22T07:17:05.240Z,59.39
2022-10-22T07:18:05.276Z,59.67
2022-10-22T07:19:05.224Z,58.97
2022-10-22T07:20:05.217Z,60.64
2022-10-22T07:21:05.229Z,60.16
2022-10-22T07:22:05.195Z,60.84
2022-10-22T07:23:05.241Z,57.77
2022-10-22T07:24:05.197Z,58.27
2022-10-22T07:25:07.263Z,58.58
2022-10-22T07:26:05.206Z,59.01
2022-10-22T07:27:08.169Z,59.15
2022-10-22T07:28:06.165Z,60.36
2022-10-22T07:29:05.156Z,58.15
2022-10-22T07:30:05.220Z,60.05
2022-10-22T07:31:05.209Z,57.74
2022-10-22T07:32:05.139Z,57.93
2022-10-22T07:33:05.149Z,58.23
2022-10-22T07:34:05.118Z,59.60
2022-10-22T07:35:05.106Z,59.04
2022-10-22T07:36:05.130Z,58.13
2022-10-22T07:37:05.136Z,58.26
2022-10-22T07:38:05.088Z,57.82
2022-10-22T07:39:05.068Z,59.06
2022-10-22T07:40:05.072Z,59.40
2022-10-22T07:41:05.082Z,58.23
2022-10-22T07:42:06.059Z,57.80
2022-10-22T07:43:05.070Z,58.71
2022-10-22T07:44:05.204Z,57.75
2022-10-22T07:45:05.064Z,58.43
2022-10-22T07:46:05.059Z,56.67
2022-10-22T07:47:05.035Z,57.73
2022-10-22T07:48:05.039Z,58.10
2022-10-22T07:49:05.018Z,57.59
2022-10-22T07:50:05.008Z,58.15
2022-10-22T07:51:05.009Z,57.49
2022-10-22T07:52:04.996Z,58.52
2022-10-22T07:53:04.984Z,55.62
2022-10-22T07:54:04.979Z,55.69
2022-10-22T07:55:04.979Z,56.22
2022-10-22T07:56:04.963Z,56.48
2022-10-22T07:57:05.020Z,56.33
2022-10-22T07:58:04.951Z,57.05
2022-10-22T07:59:04.959Z,58.30
2022-10-22T08:00:04.938Z,56.29
2022-10-22T08:01:04.977Z,56.69
2022-10-22T08:02:04.947Z,58.15
2022-10-22T08:03:04.935Z,57.70
2022-10-22T08:04:04.904Z,58.29
2022-10-22T08:05:04.919Z,58.25
2022-10-22T08:06:04.927Z,60.19
2022-10-22T08:07:04.884Z,57.19
2022-10-22T08:08:04.883Z,59.17
2022-10-22T08:09:04.924Z,57.31
2022-10-22T08:10:04.879Z,57.33
2022-10-22T08:11:04.878Z,59.74
2022-10-22T08:12:04.868Z,59.96
2022-10-22T08:13:04.863Z,57.95
2022-10-22T08:14:04.870Z,60.03
2022-10-22T08:15:04.839Z,58.55
2022-10-22T08:16:04.833Z,59.07
2022-10-22T08:17:04.883Z,59.41
2022-10-22T08:18:04.825Z,59.53
2022-10-22T08:19:04.803Z,58.91
2022-10-22T08:20:04.806Z,58.85
2022-10-22T08:21:04.830Z,59.27
2022-10-22T08:22:04.842Z,59.08
2022-10-22T08:23:04.799Z,60.61
2022-10-22T08:24:04.779Z,59.20
2022-10-22T08:25:04.762Z,59.20
2022-10-22T08:26:04.760Z,60.56
2022-10-22T08:27:04.750Z,57.23
2022-10-22T08:28:04.763Z,58.47
2022-10-22T08:29:04.754Z,60.13
2022-10-22T08:30:04.727Z,59.46
2022-10-22T08:31:04.736Z,58.36
2022-10-22T08:32:04.720Z,58.87
2022-10-22T08:33:04.759Z,58.79
2022-10-22T08:34:04.706Z,58.82
2022-10-22T08:35:04.691Z,58.95
2022-10-22T08:36:04.691Z,56.97
2022-10-22T08:37:04.686Z,58.70
2022-10-22T08:38:04.670Z,58.74
2022-10-22T08:39:04.678Z,59.58
2022-10-22T08:40:04.658Z,58.49
2022-10-22T08:41:04.657Z,59.64
2022-10-22T08:42:04.650Z,58.15
2022-10-22T08:43:04.642Z,60.42
2022-10-22T08:44:04.640Z,58.62
2022-10-22T08:45:04.618Z,58.68
2022-10-22T08:46:04.614Z,59.92
2022-10-22T08:47:04.606Z,58.70
2022-10-22T08:48:04.595Z,58.55
2022-10-22T08:49:04.628Z,59.33
2022-10-22T08:50:04.595Z,58.43
2022-10-22T08:51:04.598Z,58.25
2022-10-22T08:52:04.577Z,59.32
2022-10-22T08:53:05.667Z,57.99
2022-10-22T08:54:05.715Z,60.57
2022-10-22T08:55:04.788Z,59.96
2022-10-22T08:56:06.699Z,58.86
2022-10-22T08:57:05.328Z,58.91
2022-10-22T08:58:06.299Z,59.69
2022-10-22T08:59:04.514Z,60.63
2022-10-22T09:00:04.512Z,59.34
2022-10-22T09:01:04.505Z,58.43
2022-10-22T09:02:04.503Z,58.02
2022-10-22T09:03:04.482Z,59.12
2022-10-22T09:04:04.490Z,58.51
2022-10-22T09:05:07.630Z,60.01
2022-10-22T09:06:07.342Z,60.09
2022-10-22T09:07:04.470Z,58.01
2022-10-22T09:08:04.455Z,61.07
2022-10-22T09:09:04.494Z,60.45
2022-10-22T09:10:04.438Z,59.17
2022-10-22T09:11:05.430Z,58.88
2022-10-22T09:12:04.420Z,59.82
2022-10-22T09:13:04.427Z,57.95
2022-10-22T09:14:04.506Z,59.77
2022-10-22T09:15:04.401Z,59.22
2022-10-22T09:16:04.391Z,59.22
2022-10-22T09:17:04.388Z,58.12
2022-10-22T09:18:04.373Z,59.69
2022-10-22T09:19:04.382Z,60.82
2022-10-22T09:20:04.360Z,58.39
2022-10-22T09:21:04.490Z,58.46
2022-10-22T09:22:04.346Z,58.62
2022-10-22T09:23:04.346Z,59.06
2022-10-22T09:24:04.343Z,59.72
2022-10-22T09:25:04.332Z,60.25
2022-10-22T09:26:04.321Z,59.53
2022-10-22T09:27:04.313Z,58.87
2022-10-22T09:28:04.301Z,59.06
2022-10-22T09:29:04.302Z,58.87
2022-10-22T09:30:04.291Z,57.96
2022-10-22T09:31:04.312Z,56.68
2022-10-22T09:32:04.278Z,58.45
2022-10-22T09:33:04.271Z,57.51
2022-10-22T09:34:04.256Z,57.72
2022-10-22T09:35:04.261Z,58.41
2022-10-22T09:36:04.255Z,59.15
2022-10-22T09:37:04.250Z,58.84
2022-10-22T09:38:04.234Z,57.86
2022-10-22T09:39:04.304Z,59.80
2022-10-22T09:40:04.217Z,59.96
2022-10-22T09:41:04.344Z,59.47
2022-10-22T09:42:04.210Z,57.81
2022-10-22T09:43:04.190Z,61.02
2022-10-22T09:44:04.186Z,59.30
2022-10-22T09:45:04.182Z,58.64
2022-10-22T09:46:04.172Z,59.73
2022-10-22T09:47:04.167Z,60.20
2022-10-22T09:48:04.145Z,59.30
2022-10-22T09:49:04.146Z,59.20
2022-10-22T09:50:04.143Z,59.50
2022-10-22T09:51:04.198Z,59.34
2022-10-22T09:52:04.138Z,59.82
2022-10-22T09:53:04.127Z,59.01
2022-10-22T09:54:04.125Z,59.34
2022-10-22T09:55:04.089Z,59.95
2022-10-22T09:56:04.086Z,60.71
2022-10-22T09:57:04.089Z,59.62
2022-10-22T09:58:04.077Z,60.27
2022-10-22T09:59:04.053Z,59.25
2022-10-22T10:00:04.062Z,59.12
2022-10-22T10:01:04.049Z,60.16
2022-10-22T10:02:13.745Z,60.07
2022-10-22T10:03:06.080Z,60.53
2022-10-22T10:04:08.383Z,59.18
2022-10-22T10:05:06.028Z,58.71
2022-10-22T10:06:06.015Z,58.03
2022-10-22T10:07:04.022Z,58.07
2022-10-22T10:08:04.009Z,58.95
2022-10-22T10:09:04.077Z,57.09
2022-10-22T10:10:03.994Z,59.93
2022-10-22T10:11:03.987Z,60.39
2022-10-22T10:12:03.994Z,60.67
2022-10-22T10:13:03.973Z,59.26
2022-10-22T10:14:03.977Z,59.95
2022-10-22T10:15:03.965Z,60.95
2022-10-22T10:16:03.962Z,59.79
2022-10-22T10:17:03.973Z,59.77
2022-10-22T10:18:03.953Z,59.47
2022-10-22T10:19:03.946Z,60.41
2022-10-22T10:20:04.384Z,60.82
2022-10-22T10:21:04.012Z,61.10
2022-10-22T10:22:03.937Z,62.38
2022-10-22T10:23:03.907Z,57.85
2022-10-22T10:24:03.909Z,58.63
2022-10-22T10:25:03.905Z,60.08
2022-10-22T10:26:03.889Z,57.66
2022-10-22T10:27:03.897Z,59.04
2022-10-22T10:28:03.881Z,61.55
2022-10-22T10:29:03.906Z,60.02
2022-10-22T10:30:03.867Z,58.95
2022-10-22T10:31:03.862Z,59.89
2022-10-22T10:32:03.850Z,58.43
2022-10-22T10:33:03.842Z,57.92
2022-10-22T10:34:03.849Z,58.56
2022-10-22T10:35:03.829Z,58.85
2022-10-22T10:36:03.812Z,57.71
2022-10-22T10:37:03.823Z,58.74
2022-10-22T10:38:03.825Z,57.87
2022-10-22T10:39:03.789Z,59.52
2022-10-22T10:40:03.802Z,58.48
2022-10-22T10:41:03.786Z,57.27
2022-10-22T10:42:03.773Z,57.59
2022-10-22T10:43:03.789Z,59.19
2022-10-22T10:44:03.765Z,58.48
2022-10-22T10:45:03.756Z,56.18
2022-10-22T10:46:03.762Z,57.65
2022-10-22T10:47:03.741Z,57.16
2022-10-22T10:48:03.762Z,56.31
2022-10-22T10:49:03.737Z,56.57
2022-10-22T10:50:03.725Z,57.05
2022-10-22T10:51:03.713Z,56.23
2022-10-22T10:52:03.716Z,55.75
2022-10-22T10:53:03.729Z,58.60
2022-10-22T10:54:03.697Z,59.12
2022-10-22T10:55:03.726Z,57.57
2022-10-22T10:56:03.714Z,57.61
2022-10-22T10:57:03.717Z,58.92
2022-10-22T10:58:03.681Z,58.14
2022-10-22T10:59:03.707Z,57.84
2022-10-22T11:00:03.665Z,57.72
2022-10-22T11:01:03.663Z,56.92
2022-10-22T11:02:03.645Z,57.48
2022-10-22T11:03:03.653Z,56.28
2022-10-22T11:04:03.671Z,57.17
2022-10-22T11:05:03.633Z,57.76
2022-10-22T11:06:03.626Z,57.70
2022-10-22T11:07:10.980Z,57.76
2022-10-22T11:08:05.622Z,58.06
2022-10-22T11:09:03.715Z,58.30
2022-10-22T11:10:03.613Z,56.63
2022-10-22T11:11:03.708Z,56.87
2022-10-22T11:12:03.601Z,57.43
2022-10-22T11:13:03.619Z,57.76
2022-10-22T11:14:03.594Z,58.81
2022-10-22T11:15:03.581Z,58.60
2022-10-22T11:16:03.573Z,57.74
2022-10-22T11:17:03.564Z,60.01
2022-10-22T11:18:03.542Z,60.05
2022-10-22T11:19:03.564Z,55.54
2022-10-22T11:20:03.545Z,56.78
2022-10-22T11:21:03.524Z,58.94
2022-10-22T11:22:03.524Z,57.86
2022-10-22T11:23:21.551Z,58.00
2022-10-22T11:24:05.525Z,58.04
2022-10-22T11:25:03.537Z,57.43
2022-10-22T11:26:03.513Z,58.11
2022-10-22T11:27:03.492Z,57.65
2022-10-22T11:28:09.160Z,59.05
2022-10-22T11:29:04.486Z,55.75
2022-10-22T11:30:03.473Z,57.38
2022-10-22T11:31:03.477Z,56.92
2022-10-22T11:32:03.473Z,57.84
2022-10-22T11:33:03.457Z,57.43
2022-10-22T11:34:09.995Z,57.69
2022-10-22T11:35:05.447Z,57.92
2022-10-22T11:36:03.458Z,57.29
2022-10-22T11:37:03.440Z,57.45
2022-10-22T11:38:04.429Z,57.58
2022-10-22T11:39:03.426Z,59.48
2022-10-22T11:40:03.429Z,57.66
2022-10-22T11:41:03.425Z,57.98
2022-10-22T11:42:03.408Z,56.17
2022-10-22T11:43:03.399Z,55.57
2022-10-22T11:44:03.394Z,56.77
2022-10-22T11:45:03.388Z,57.62
2022-10-22T11:46:03.428Z,58.28
2022-10-22T11:47:03.369Z,60.70
2022-10-22T11:48:03.385Z,60.02
2022-10-22T11:49:03.357Z,58.60
2022-10-22T11:50:03.359Z,57.88
2022-10-22T11:51:03.356Z,58.87
2022-10-22T11:52:05.007Z,58.95
2022-10-22T11:53:03.363Z,58.08
2022-10-22T11:54:03.335Z,59.55
2022-10-22T11:55:03.314Z,60.28
2022-10-22T11:56:03.308Z,60.78
2022-10-22T11:57:03.309Z,58.57
2022-10-22T11:58:03.292Z,58.73
2022-10-22T11:59:03.296Z,61.10
2022-10-22T12:00:03.272Z,60.24
2022-10-22T12:01:03.276Z,58.52
2022-10-22T12:02:03.286Z,58.48
2022-10-22T12:03:03.261Z,59.01
2022-10-22T12:04:03.280Z,59.72
2022-10-22T12:05:03.249Z,60.46
2022-10-22T12:06:03.233Z,58.43
2022-10-22T12:07:03.240Z,59.82
2022-10-22T12:08:03.316Z,59.07
2022-10-22T12:09:03.294Z,59.87
2022-10-22T12:10:03.217Z,58.61
2022-10-22T12:11:03.224Z,60.09
2022-10-22T12:12:03.197Z,58.94
2022-10-22T12:13:03.201Z,59.08
2022-10-22T12:14:03.194Z,59.00
2022-10-22T12:15:03.183Z,58.68
2022-10-22T12:16:03.180Z,59.72
2022-10-22T12:17:03.167Z,59.31
2022-10-22T12:18:03.238Z,60.48
2022-10-22T12:19:03.161Z,60.14
2022-10-22T12:20:03.291Z,60.57
2022-10-22T12:21:03.168Z,58.54
2022-10-22T12:22:03.269Z,58.63
2022-10-22T12:23:03.144Z,59.06
2022-10-22T12:24:03.124Z,59.28
2022-10-22T12:25:03.131Z,58.38
2022-10-22T12:26:03.108Z,59.79
2022-10-22T12:27:03.112Z,60.78
2022-10-22T12:28:03.098Z,58.72
2022-10-22T12:29:03.172Z,58.65
2022-10-22T12:30:03.098Z,59.61
2022-10-22T12:31:03.108Z,59.27
2022-10-22T12:32:03.080Z,59.47
2022-10-22T12:33:03.069Z,59.00
2022-10-22T12:34:03.062Z,60.27
2022-10-22T12:35:03.049Z,59.28
2022-10-22T12:36:03.056Z,59.46
2022-10-22T12:37:03.041Z,58.38
2022-10-22T12:38:03.028Z,57.77
2022-10-22T12:39:03.020Z,58.56
2022-10-22T12:40:03.022Z,54.33
2022-10-22T12:41:03.004Z,56.96
2022-10-22T12:42:03.066Z,58.57
2022-10-22T12:43:03.039Z,59.18
2022-10-22T12:44:03.048Z,59.93
2022-10-22T12:45:02.985Z,58.66
2022-10-22T12:46:02.968Z,58.72
2022-10-22T12:47:02.968Z,59.53
2022-10-22T12:48:02.985Z,59.19
2022-10-22T12:49:02.956Z,58.80
2022-10-22T12:50:02.946Z,59.32
2022-10-22T12:51:02.969Z,59.00
2022-10-22T12:52:02.928Z,59.13
2022-10-22T12:53:03.944Z,58.05
2022-10-22T12:54:02.925Z,59.05
2022-10-22T12:55:03.944Z,58.27